sensor_id;sensor_type;location;lat;lon;timestamp;P1;durP1;ratioP1;P2;durP2;ratioP2
6953;SDS011;3516;47.980;8.808;2023-01-29T00:00:21;7.40;;;5.78;;
6953;SDS011;3516;47.980;8.808;2023-01-29T00:02:48;6.82;;;5.50;;
6953;SDS011;3516;47.980;8.808;2023-01-29T00:05:15;8.90;;;6.43;;
6953;SDS011;3516;47.980;8.808;2023-01-29T00:07:44;7.18;;;5.78;;
6953;SDS011;3516;47.980;8.808;2023-01-29T00:10:11;7.70;;;5.97;;
6953;SDS011;3516;47.980;8.808;2023-01-29T00:12:38;7.47;;;5.30;;
6953;SDS011;3516;47.980;8.808;2023-01-29T06:38:05;6.47;;;5.97;;
6953;SDS011;3516;47.980;8.808;2023-01-29T06:40:32;6.80;;;6.18;;
6953;SDS011;3516;47.980;8.808;2023-01-29T06:42:59;6.20;;;5.70;;
6953;SDS011;3516;47.980;8.808;2023-01-29T06:45:26;6.90;;;6.22;;
6953;SDS011;3516;47.980;8.808;2023-01-29T06:47:54;6.95;;;6.35;;
6953;SDS011;3516;47.980;8.808;2023-01-29T06:50:21;6.30;;;5.80;;
6953;SDS011;3516;47.980;8.808;2023-01-29T06:52:48;7.40;;;6.65;;
6953;SDS011;3516;47.980;8.808;2023-01-29T06:55:17;7.70;;;6.68;;
6953;SDS011;3516;47.980;8.808;2023-01-29T06:57:44;6.38;;;5.78;;
6953;SDS011;3516;47.980;8.808;2023-01-29T07:00:11;8.10;;;5.93;;
6953;SDS011;3516;47.980;8.808;2023-01-29T07:02:39;6.03;;;5.50;;
6953;SDS011;3516;47.980;8.808;2023-01-29T07:05:06;5.93;;;5.35;;
6953;SDS011;3516;47.980;8.808;2023-01-29T07:07:34;6.43;;;5.93;;
6953;SDS011;3516;47.980;8.808;2023-01-29T07:10:01;6.25;;;5.70;;
6953;SDS011;3516;47.980;8.808;2023-01-29T07:12:30;7.68;;;6.85;;
6953;SDS011;3516;47.980;8.808;2023-01-29T07:14:57;7.10;;;6.43;;
6953;SDS011;3516;47.980;8.808;2023-01-29T07:17:24;9.98;;;6.88;;
6953;SDS011;3516;47.980;8.808;2023-01-29T07:19:51;8.75;;;7.18;;
6953;SDS011;3516;47.980;8.808;2023-01-29T07:22:18;7.55;;;6.85;;
6953;SDS011;3516;47.980;8.808;2023-01-29T07:24:45;9.13;;;6.35;;
6953;SDS011;3516;47.980;8.808;2023-01-29T07:27:12;9.32;;;7.65;;
6953;SDS011;3516;47.980;8.808;2023-01-29T07:29:41;8.23;;;7.13;;
6953;SDS011;3516;47.980;8.808;2023-01-29T07:32:08;9.45;;;6.47;;
6953;SDS011;3516;47.980;8.808;2023-01-29T07:34:35;7.38;;;6.68;;
6953;SDS011;3516;47.980;8.808;2023-01-29T07:37:02;9.90;;;8.20;;
6953;SDS011;3516;47.980;8.808;2023-01-29T07:39:30;11.18;;;8.20;;
6953;SDS011;3516;47.980;8.808;2023-01-29T07:41:57;10.88;;;7.78;;
6953;SDS011;3516;47.980;8.808;2023-01-29T07:44:24;11.52;;;8.57;;
6953;SDS011;3516;47.980;8.808;2023-01-29T07:46:52;8.60;;;7.70;;
6953;SDS011;3516;47.980;8.808;2023-01-29T07:49:19;11.45;;;8.65;;
6953;SDS011;3516;47.980;8.808;2023-01-29T07:51:46;9.75;;;8.45;;
6953;SDS011;3516;47.980;8.808;2023-01-29T07:54:13;8.85;;;7.88;;
6953;SDS011;3516;47.980;8.808;2023-01-29T07:56:40;10.90;;;8.88;;
6953;SDS011;3516;47.980;8.808;2023-01-29T07:59:07;10.30;;;9.05;;
6953;SDS011;3516;47.980;8.808;2023-01-29T08:01:35;11.63;;;9.10;;
6953;SDS011;3516;47.980;8.808;2023-01-29T08:04:03;11.38;;;9.40;;
6953;SDS011;3516;47.980;8.808;2023-01-29T08:06:30;10.68;;;8.75;;
6953;SDS011;3516;47.980;8.808;2023-01-29T08:08:57;11.20;;;9.15;;
6953;SDS011;3516;47.980;8.808;2023-01-29T08:11:24;10.88;;;9.15;;
6953;SDS011;3516;47.980;8.808;2023-01-29T08:13:51;10.55;;;9.25;;
6953;SDS011;3516;47.980;8.808;2023-01-29T08:16:19;11.52;;;9.68;;
6953;SDS011;3516;47.980;8.808;2023-01-29T08:18:46;12.10;;;9.15;;
6953;SDS011;3516;47.980;8.808;2023-01-29T08:21:14;9.50;;;8.20;;
6953;SDS011;3516;47.980;8.808;2023-01-29T08:23:41;10.48;;;8.75;;
6953;SDS011;3516;47.980;8.808;2023-01-29T08:26:08;8.63;;;7.65;;
6953;SDS011;3516;47.980;8.808;2023-01-29T08:28:35;8.15;;;7.18;;
6953;SDS011;3516;47.980;8.808;2023-01-29T08:31:03;10.02;;;8.23;;
6953;SDS011;3516;47.980;8.808;2023-01-29T08:33:30;9.30;;;7.43;;
6953;SDS011;3516;47.980;8.808;2023-01-29T08:35:58;11.43;;;8.40;;
6953;SDS011;3516;47.980;8.808;2023-01-29T08:38:26;9.10;;;8.20;;
6953;SDS011;3516;47.980;8.808;2023-01-29T08:40:53;9.63;;;8.15;;
6953;SDS011;3516;47.980;8.808;2023-01-29T08:43:20;9.90;;;8.20;;
6953;SDS011;3516;47.980;8.808;2023-01-29T08:45:47;12.52;;;9.90;;
6953;SDS011;3516;47.980;8.808;2023-01-29T08:48:14;10.02;;;8.77;;
6953;SDS011;3516;47.980;8.808;2023-01-29T08:50:41;12.07;;;9.32;;
6953;SDS011;3516;47.980;8.808;2023-01-29T08:53:09;11.23;;;8.88;;
6953;SDS011;3516;47.980;8.808;2023-01-29T08:55:38;11.43;;;8.80;;
6953;SDS011;3516;47.980;8.808;2023-01-29T08:58:06;11.13;;;8.63;;
6953;SDS011;3516;47.980;8.808;2023-01-29T09:00:33;10.02;;;8.88;;
6953;SDS011;3516;47.980;8.808;2023-01-29T09:03:00;10.27;;;8.52;;
6953;SDS011;3516;47.980;8.808;2023-01-29T09:05:27;10.27;;;8.45;;
6953;SDS011;3516;47.980;8.808;2023-01-29T09:07:55;12.73;;;9.23;;
6953;SDS011;3516;47.980;8.808;2023-01-29T09:10:22;11.38;;;9.50;;
6953;SDS011;3516;47.980;8.808;2023-01-29T09:12:51;12.65;;;9.73;;
6953;SDS011;3516;47.980;8.808;2023-01-29T09:15:18;10.25;;;8.48;;
6953;SDS011;3516;47.980;8.808;2023-01-29T09:17:45;10.43;;;8.45;;
6953;SDS011;3516;47.980;8.808;2023-01-29T09:20:13;9.77;;;8.77;;
6953;SDS011;3516;47.980;8.808;2023-01-29T09:22:41;9.98;;;8.93;;
6953;SDS011;3516;47.980;8.808;2023-01-29T09:25:08;8.95;;;8.05;;
6953;SDS011;3516;47.980;8.808;2023-01-29T09:27:35;9.73;;;7.88;;
6953;SDS011;3516;47.980;8.808;2023-01-29T09:30:04;9.80;;;7.70;;
6953;SDS011;3516;47.980;8.808;2023-01-29T09:32:32;9.57;;;8.40;;
6953;SDS011;3516;47.980;8.808;2023-01-29T09:34:59;9.43;;;8.27;;
6953;SDS011;3516;47.980;8.808;2023-01-29T09:37:27;9.30;;;8.13;;
6953;SDS011;3516;47.980;8.808;2023-01-29T09:39:54;9.30;;;8.30;;
6953;SDS011;3516;47.980;8.808;2023-01-29T09:42:22;8.82;;;7.18;;
6953;SDS011;3516;47.980;8.808;2023-01-29T09:44:52;9.23;;;8.20;;
6953;SDS011;3516;47.980;8.808;2023-01-29T09:47:22;9.93;;;8.38;;
6953;SDS011;3516;47.980;8.808;2023-01-29T09:49:50;10.98;;;7.95;;
6953;SDS011;3516;47.980;8.808;2023-01-29T09:52:19;12.52;;;8.77;;
6953;SDS011;3516;47.980;8.808;2023-01-29T09:54:49;12.25;;;9.23;;
6953;SDS011;3516;47.980;8.808;2023-01-29T09:57:19;10.27;;;8.60;;
6953;SDS011;3516;47.980;8.808;2023-01-29T09:59:48;8.35;;;7.47;;
6953;SDS011;3516;47.980;8.808;2023-01-29T10:02:19;8.40;;;7.60;;
6953;SDS011;3516;47.980;8.808;2023-01-29T10:07:40;8.82;;;7.45;;
6953;SDS011;3516;47.980;8.808;2023-01-29T10:10:16;8.85;;;7.32;;
6953;SDS011;3516;47.980;8.808;2023-01-29T10:12:49;8.18;;;7.32;;
6953;SDS011;3516;47.980;8.808;2023-01-29T10:15:23;8.10;;;7.22;;
6953;SDS011;3516;47.980;8.808;2023-01-29T10:17:56;8.52;;;7.00;;
6953;SDS011;3516;47.980;8.808;2023-01-29T10:20:29;8.20;;;7.15;;
6953;SDS011;3516;47.980;8.808;2023-01-29T10:23:03;8.32;;;6.65;;
6953;SDS011;3516;47.980;8.808;2023-01-29T10:25:32;6.68;;;6.07;;
6953;SDS011;3516;47.980;8.808;2023-01-29T10:28:02;6.63;;;6.03;;
6953;SDS011;3516;47.980;8.808;2023-01-29T10:30:30;9.07;;;6.85;;
6953;SDS011;3516;47.980;8.808;2023-01-29T10:32:58;7.85;;;6.45;;
6953;SDS011;3516;47.980;8.808;2023-01-29T10:35:28;7.85;;;7.10;;
6953;SDS011;3516;47.980;8.808;2023-01-29T10:37:57;8.90;;;7.63;;
6953;SDS011;3516;47.980;8.808;2023-01-29T10:40:31;8.00;;;7.20;;
6953;SDS011;3516;47.980;8.808;2023-01-29T10:43:02;7.07;;;6.38;;
6953;SDS011;3516;47.980;8.808;2023-01-29T10:45:31;8.57;;;7.72;;
6953;SDS011;3516;47.980;8.808;2023-01-29T10:48:07;7.80;;;7.00;;
6953;SDS011;3516;47.980;8.808;2023-01-29T10:50:39;11.82;;;6.93;;
6953;SDS011;3516;47.980;8.808;2023-01-29T10:53:15;7.60;;;7.00;;
6953;SDS011;3516;47.980;8.808;2023-01-29T10:55:49;7.05;;;6.35;;
6953;SDS011;3516;47.980;8.808;2023-01-29T10:58:21;7.70;;;6.93;;
6953;SDS011;3516;47.980;8.808;2023-01-29T11:00:51;10.15;;;7.30;;
6953;SDS011;3516;47.980;8.808;2023-01-29T11:03:21;9.68;;;7.97;;
6953;SDS011;3516;47.980;8.808;2023-01-29T11:05:49;7.10;;;6.45;;
6953;SDS011;3516;47.980;8.808;2023-01-29T11:08:18;8.93;;;8.02;;
6953;SDS011;3516;47.980;8.808;2023-01-29T11:10:48;7.50;;;6.72;;
6953;SDS011;3516;47.980;8.808;2023-01-29T11:13:19;10.63;;;7.18;;
6953;SDS011;3516;47.980;8.808;2023-01-29T11:15:48;8.27;;;6.57;;
6953;SDS011;3516;47.980;8.808;2023-01-29T11:18:17;7.68;;;6.60;;
6953;SDS011;3516;47.980;8.808;2023-01-29T11:20:44;7.80;;;7.00;;
6953;SDS011;3516;47.980;8.808;2023-01-29T11:23:23;8.77;;;7.75;;
6953;SDS011;3516;47.980;8.808;2023-01-29T11:25:53;9.13;;;8.18;;
6953;SDS011;3516;47.980;8.808;2023-01-29T11:28:34;7.45;;;6.68;;
6953;SDS011;3516;47.980;8.808;2023-01-29T11:31:02;7.72;;;7.00;;
6953;SDS011;3516;47.980;8.808;2023-01-29T11:33:29;8.10;;;7.30;;
6953;SDS011;3516;47.980;8.808;2023-01-29T11:35:56;8.65;;;7.00;;
6953;SDS011;3516;47.980;8.808;2023-01-29T11:38:23;7.38;;;6.78;;
6953;SDS011;3516;47.980;8.808;2023-01-29T11:40:52;6.50;;;5.90;;
6953;SDS011;3516;47.980;8.808;2023-01-29T11:43:29;7.82;;;7.10;;
6953;SDS011;3516;47.980;8.808;2023-01-29T11:45:57;10.00;;;6.78;;
6953;SDS011;3516;47.980;8.808;2023-01-29T11:48:26;7.10;;;6.40;;
6953;SDS011;3516;47.980;8.808;2023-01-29T11:50:56;7.68;;;6.95;;
6953;SDS011;3516;47.980;8.808;2023-01-29T11:53:32;8.35;;;7.47;;
6953;SDS011;3516;47.980;8.808;2023-01-29T11:56:01;8.40;;;7.50;;
6953;SDS011;3516;47.980;8.808;2023-01-29T11:58:29;8.75;;;7.45;;
6953;SDS011;3516;47.980;8.808;2023-01-29T12:00:58;11.93;;;7.95;;
6953;SDS011;3516;47.980;8.808;2023-01-29T12:03:28;14.10;;;8.15;;
6953;SDS011;3516;47.980;8.808;2023-01-29T12:05:57;9.15;;;7.10;;
6953;SDS011;3516;47.980;8.808;2023-01-29T12:08:28;9.07;;;7.82;;
6953;SDS011;3516;47.980;8.808;2023-01-29T12:11:07;10.05;;;7.65;;
6953;SDS011;3516;47.980;8.808;2023-01-29T12:13:35;8.55;;;7.70;;
6953;SDS011;3516;47.980;8.808;2023-01-29T12:16:04;9.77;;;7.72;;
6953;SDS011;3516;47.980;8.808;2023-01-29T12:18:37;8.50;;;7.70;;
6953;SDS011;3516;47.980;8.808;2023-01-29T12:21:09;9.02;;;7.00;;
6953;SDS011;3516;47.980;8.808;2023-01-29T12:23:39;9.02;;;8.02;;
6953;SDS011;3516;47.980;8.808;2023-01-29T12:26:10;8.93;;;8.02;;
6953;SDS011;3516;47.980;8.808;2023-01-29T12:28:41;7.95;;;7.18;;
6953;SDS011;3516;47.980;8.808;2023-01-29T12:31:20;9.93;;;7.40;;
6953;SDS011;3516;47.980;8.808;2023-01-29T12:33:51;10.93;;;8.20;;
6953;SDS011;3516;47.980;8.808;2023-01-29T12:36:20;8.25;;;7.47;;
6953;SDS011;3516;47.980;8.808;2023-01-29T12:38:49;11.45;;;8.32;;
6953;SDS011;3516;47.980;8.808;2023-01-29T12:41:23;10.05;;;8.45;;
6953;SDS011;3516;47.980;8.808;2023-01-29T12:43:51;11.82;;;8.75;;
6953;SDS011;3516;47.980;8.808;2023-01-29T12:46:21;10.30;;;8.60;;
6953;SDS011;3516;47.980;8.808;2023-01-29T12:48:50;11.18;;;8.52;;
6953;SDS011;3516;47.980;8.808;2023-01-29T12:51:20;14.07;;;8.40;;
6953;SDS011;3516;47.980;8.808;2023-01-29T12:53:55;13.93;;;9.27;;
6953;SDS011;3516;47.980;8.808;2023-01-29T12:56:26;12.88;;;9.20;;
6953;SDS011;3516;47.980;8.808;2023-01-29T12:58:55;7.63;;;6.88;;
6953;SDS011;3516;47.980;8.808;2023-01-29T13:01:25;8.05;;;6.97;;
6953;SDS011;3516;47.980;8.808;2023-01-29T13:03:54;13.85;;;10.15;;
6953;SDS011;3516;47.980;8.808;2023-01-29T13:06:24;9.73;;;7.78;;
6953;SDS011;3516;47.980;8.808;2023-01-29T13:08:54;7.47;;;6.82;;
6953;SDS011;3516;47.980;8.808;2023-01-29T13:11:24;7.47;;;6.78;;
6953;SDS011;3516;47.980;8.808;2023-01-29T13:13:55;7.85;;;6.78;;
6953;SDS011;3516;47.980;8.808;2023-01-29T13:16:24;7.97;;;7.10;;
6953;SDS011;3516;47.980;8.808;2023-01-29T13:18:53;7.85;;;7.03;;
6953;SDS011;3516;47.980;8.808;2023-01-29T13:21:22;7.63;;;6.78;;
6953;SDS011;3516;47.980;8.808;2023-01-29T13:23:52;8.00;;;7.15;;
6953;SDS011;3516;47.980;8.808;2023-01-29T13:26:20;6.88;;;6.25;;
6953;SDS011;3516;47.980;8.808;2023-01-29T13:28:48;8.27;;;7.47;;
6953;SDS011;3516;47.980;8.808;2023-01-29T13:31:21;8.18;;;7.32;;
6953;SDS011;3516;47.980;8.808;2023-01-29T13:33:53;7.43;;;6.70;;
6953;SDS011;3516;47.980;8.808;2023-01-29T13:36:23;7.85;;;7.15;;
6953;SDS011;3516;47.980;8.808;2023-01-29T13:38:53;7.38;;;6.68;;
6953;SDS011;3516;47.980;8.808;2023-01-29T13:41:29;8.40;;;7.10;;
6953;SDS011;3516;47.980;8.808;2023-01-29T13:43:56;7.97;;;7.18;;
6953;SDS011;3516;47.980;8.808;2023-01-29T13:46:25;8.65;;;7.32;;
6953;SDS011;3516;47.980;8.808;2023-01-29T13:48:53;18.30;;;12.52;;
6953;SDS011;3516;47.980;8.808;2023-01-29T13:51:22;8.95;;;8.05;;
6953;SDS011;3516;47.980;8.808;2023-01-29T13:53:55;11.35;;;8.32;;
6953;SDS011;3516;47.980;8.808;2023-01-29T13:56:33;8.63;;;7.68;;
6953;SDS011;3516;47.980;8.808;2023-01-29T13:59:08;9.07;;;7.57;;
6953;SDS011;3516;47.980;8.808;2023-01-29T14:02:00;13.35;;;8.63;;
6953;SDS011;3516;47.980;8.808;2023-01-29T14:04:30;11.95;;;8.65;;
6953;SDS011;3516;47.980;8.808;2023-01-29T14:06:58;9.05;;;7.93;;
6953;SDS011;3516;47.980;8.808;2023-01-29T14:09:30;8.88;;;8.00;;
6953;SDS011;3516;47.980;8.808;2023-01-29T14:11:58;10.60;;;8.00;;
6953;SDS011;3516;47.980;8.808;2023-01-29T14:17:24;9.73;;;8.07;;
6953;SDS011;3516;47.980;8.808;2023-01-29T14:19:52;10.45;;;7.75;;
6953;SDS011;3516;47.980;8.808;2023-01-29T14:22:20;9.55;;;7.85;;
6953;SDS011;3516;47.980;8.808;2023-01-29T14:24:48;8.63;;;7.00;;
6953;SDS011;3516;47.980;8.808;2023-01-29T14:27:20;9.45;;;7.32;;
6953;SDS011;3516;47.980;8.808;2023-01-29T14:29:49;7.57;;;6.80;;
6953;SDS011;3516;47.980;8.808;2023-01-29T14:32:21;8.80;;;7.35;;
6953;SDS011;3516;47.980;8.808;2023-01-29T14:34:53;9.27;;;7.05;;
6953;SDS011;3516;47.980;8.808;2023-01-29T14:37:24;8.15;;;7.25;;
6953;SDS011;3516;47.980;8.808;2023-01-29T14:39:55;8.88;;;7.20;;
6953;SDS011;3516;47.980;8.808;2023-01-29T14:42:23;9.00;;;7.60;;
6953;SDS011;3516;47.980;8.808;2023-01-29T14:44:56;8.20;;;6.80;;
6953;SDS011;3516;47.980;8.808;2023-01-29T14:52:52;11.60;;;7.97;;
6953;SDS011;3516;47.980;8.808;2023-01-29T14:55:28;8.60;;;7.53;;
6953;SDS011;3516;47.980;8.808;2023-01-29T14:57:56;8.93;;;7.57;;
6953;SDS011;3516;47.980;8.808;2023-01-29T15:00:26;9.77;;;7.50;;
6953;SDS011;3516;47.980;8.808;2023-01-29T15:02:53;9.20;;;7.25;;
6953;SDS011;3516;47.980;8.808;2023-01-29T15:05:22;9.80;;;7.95;;
6953;SDS011;3516;47.980;8.808;2023-01-29T15:07:54;8.43;;;7.25;;
6953;SDS011;3516;47.980;8.808;2023-01-29T15:10:24;8.32;;;7.32;;
6953;SDS011;3516;47.980;8.808;2023-01-29T15:12:54;8.32;;;6.88;;
6953;SDS011;3516;47.980;8.808;2023-01-29T15:15:24;9.15;;;7.57;;
6953;SDS011;3516;47.980;8.808;2023-01-29T15:17:56;8.80;;;7.93;;
6953;SDS011;3516;47.980;8.808;2023-01-29T15:20:25;9.98;;;8.25;;
6953;SDS011;3516;47.980;8.808;2023-01-29T15:22:53;9.55;;;7.97;;
6953;SDS011;3516;47.980;8.808;2023-01-29T15:25:20;10.45;;;7.53;;
6953;SDS011;3516;47.980;8.808;2023-01-29T15:27:47;9.82;;;8.05;;
6953;SDS011;3516;47.980;8.808;2023-01-29T15:30:16;9.27;;;7.28;;
6953;SDS011;3516;47.980;8.808;2023-01-29T15:32:43;8.00;;;7.13;;
6953;SDS011;3516;47.980;8.808;2023-01-29T15:35:15;8.77;;;7.38;;
6953;SDS011;3516;47.980;8.808;2023-01-29T15:37:47;9.93;;;6.88;;
6953;SDS011;3516;47.980;8.808;2023-01-29T15:40:25;9.50;;;8.07;;
6953;SDS011;3516;47.980;8.808;2023-01-29T15:42:52;8.85;;;7.30;;
6953;SDS011;3516;47.980;8.808;2023-01-29T15:45:20;8.27;;;7.13;;
6953;SDS011;3516;47.980;8.808;2023-01-29T15:47:47;9.82;;;7.22;;
6953;SDS011;3516;47.980;8.808;2023-01-29T15:50:14;9.60;;;7.07;;
6953;SDS011;3516;47.980;8.808;2023-01-29T15:52:41;8.18;;;7.28;;
6953;SDS011;3516;47.980;8.808;2023-01-29T15:55:09;10.52;;;7.82;;
6953;SDS011;3516;47.980;8.808;2023-01-29T15:57:39;8.80;;;7.53;;
6953;SDS011;3516;47.980;8.808;2023-01-29T16:00:16;9.25;;;7.07;;
6953;SDS011;3516;47.980;8.808;2023-01-29T16:02:44;11.70;;;7.80;;
6953;SDS011;3516;47.980;8.808;2023-01-29T16:05:13;9.85;;;7.85;;
6953;SDS011;3516;47.980;8.808;2023-01-29T16:07:41;9.73;;;7.63;;
6953;SDS011;3516;47.980;8.808;2023-01-29T16:10:13;8.30;;;7.20;;
6953;SDS011;3516;47.980;8.808;2023-01-29T16:12:42;12.82;;;8.93;;
6953;SDS011;3516;47.980;8.808;2023-01-29T16:15:13;10.13;;;7.85;;
6953;SDS011;3516;47.980;8.808;2023-01-29T16:17:43;11.52;;;8.90;;
6953;SDS011;3516;47.980;8.808;2023-01-29T16:20:19;11.02;;;8.30;;
6953;SDS011;3516;47.980;8.808;2023-01-29T16:22:47;10.73;;;8.88;;
6953;SDS011;3516;47.980;8.808;2023-01-29T16:25:14;11.30;;;8.43;;
6953;SDS011;3516;47.980;8.808;2023-01-29T16:27:43;21.40;;;12.23;;
6953;SDS011;3516;47.980;8.808;2023-01-29T16:30:12;22.52;;;12.32;;
6953;SDS011;3516;47.980;8.808;2023-01-29T16:32:40;21.60;;;13.10;;
6953;SDS011;3516;47.980;8.808;2023-01-29T16:35:11;19.50;;;13.23;;
6953;SDS011;3516;47.980;8.808;2023-01-29T16:37:41;15.90;;;10.85;;
6953;SDS011;3516;47.980;8.808;2023-01-29T16:40:12;13.25;;;9.25;;
6953;SDS011;3516;47.980;8.808;2023-01-29T16:42:40;10.10;;;7.32;;
6953;SDS011;3516;47.980;8.808;2023-01-29T16:45:23;7.93;;;6.93;;
6953;SDS011;3516;47.980;8.808;2023-01-29T16:47:58;7.55;;;6.65;;
6953;SDS011;3516;47.980;8.808;2023-01-29T16:50:29;7.30;;;6.35;;
6953;SDS011;3516;47.980;8.808;2023-01-29T16:53:00;11.70;;;8.73;;
6953;SDS011;3516;47.980;8.808;2023-01-29T16:55:31;10.73;;;8.00;;
6953;SDS011;3516;47.980;8.808;2023-01-29T16:57:59;11.35;;;8.45;;
6953;SDS011;3516;47.980;8.808;2023-01-29T17:00:30;9.80;;;8.75;;
6953;SDS011;3516;47.980;8.808;2023-01-29T17:02:58;12.43;;;9.30;;
6953;SDS011;3516;47.980;8.808;2023-01-29T17:05:26;10.68;;;8.32;;
6953;SDS011;3516;47.980;8.808;2023-01-29T17:07:55;10.15;;;8.13;;
6953;SDS011;3516;47.980;8.808;2023-01-29T17:10:23;9.60;;;7.55;;
6953;SDS011;3516;47.980;8.808;2023-01-29T17:12:54;10.60;;;7.65;;
6953;SDS011;3516;47.980;8.808;2023-01-29T17:15:30;8.93;;;7.22;;
6953;SDS011;3516;47.980;8.808;2023-01-29T17:17:58;9.25;;;7.65;;
6953;SDS011;3516;47.980;8.808;2023-01-29T17:20:25;8.48;;;7.57;;
6953;SDS011;3516;47.980;8.808;2023-01-29T17:22:52;8.23;;;7.13;;
6953;SDS011;3516;47.980;8.808;2023-01-29T17:25:19;7.47;;;6.70;;
6953;SDS011;3516;47.980;8.808;2023-01-29T17:27:47;9.18;;;7.15;;
6953;SDS011;3516;47.980;8.808;2023-01-29T17:30:16;10.13;;;7.85;;
6953;SDS011;3516;47.980;8.808;2023-01-29T17:32:45;9.63;;;7.55;;
6953;SDS011;3516;47.980;8.808;2023-01-29T17:35:12;9.07;;;7.50;;
6953;SDS011;3516;47.980;8.808;2023-01-29T17:37:39;14.02;;;8.98;;
6953;SDS011;3516;47.980;8.808;2023-01-29T17:40:10;11.95;;;8.50;;
6953;SDS011;3516;47.980;8.808;2023-01-29T17:42:40;12.02;;;8.65;;
6953;SDS011;3516;47.980;8.808;2023-01-29T17:45:08;12.30;;;8.57;;
6953;SDS011;3516;47.980;8.808;2023-01-29T17:47:35;12.32;;;9.18;;
6953;SDS011;3516;47.980;8.808;2023-01-29T17:50:08;10.40;;;8.18;;
6953;SDS011;3516;47.980;8.808;2023-01-29T17:52:37;12.25;;;8.70;;
6953;SDS011;3516;47.980;8.808;2023-01-29T17:55:04;10.55;;;8.23;;
6953;SDS011;3516;47.980;8.808;2023-01-29T17:57:31;10.35;;;8.23;;
6953;SDS011;3516;47.980;8.808;2023-01-29T17:59:59;8.68;;;7.65;;
6953;SDS011;3516;47.980;8.808;2023-01-29T18:02:26;9.27;;;7.95;;
6953;SDS011;3516;47.980;8.808;2023-01-29T18:04:53;12.25;;;8.55;;
6953;SDS011;3516;47.980;8.808;2023-01-29T18:07:21;12.45;;;8.27;;
6953;SDS011;3516;47.980;8.808;2023-01-29T18:09:48;16.80;;;10.63;;
6953;SDS011;3516;47.980;8.808;2023-01-29T18:12:15;17.77;;;9.85;;
6953;SDS011;3516;47.980;8.808;2023-01-29T18:14:42;13.93;;;9.68;;
6953;SDS011;3516;47.980;8.808;2023-01-29T18:17:09;11.65;;;9.20;;
6953;SDS011;3516;47.980;8.808;2023-01-29T18:19:38;9.30;;;7.80;;
6953;SDS011;3516;47.980;8.808;2023-01-29T18:22:05;9.85;;;8.02;;
6953;SDS011;3516;47.980;8.808;2023-01-29T18:24:33;10.07;;;7.80;;
6953;SDS011;3516;47.980;8.808;2023-01-29T18:27:00;9.60;;;7.60;;
6953;SDS011;3516;47.980;8.808;2023-01-29T18:29:27;10.75;;;8.70;;
6953;SDS011;3516;47.980;8.808;2023-01-29T18:31:54;10.32;;;8.10;;
6953;SDS011;3516;47.980;8.808;2023-01-29T18:34:21;9.57;;;8.13;;
6953;SDS011;3516;47.980;8.808;2023-01-29T18:36:49;11.45;;;8.15;;
6953;SDS011;3516;47.980;8.808;2023-01-29T18:39:16;11.20;;;8.00;;
6953;SDS011;3516;47.980;8.808;2023-01-29T18:41:44;12.25;;;9.25;;
6953;SDS011;3516;47.980;8.808;2023-01-29T18:44:11;10.60;;;9.10;;
6953;SDS011;3516;47.980;8.808;2023-01-29T18:46:38;12.18;;;9.10;;
6953;SDS011;3516;47.980;8.808;2023-01-29T18:49:05;10.50;;;8.77;;
6953;SDS011;3516;47.980;8.808;2023-01-29T18:51:32;13.20;;;9.15;;
6953;SDS011;3516;47.980;8.808;2023-01-29T18:53:59;11.30;;;8.88;;
6953;SDS011;3516;47.980;8.808;2023-01-29T18:56:27;10.00;;;7.88;;
6953;SDS011;3516;47.980;8.808;2023-01-29T18:58:56;11.30;;;8.40;;
6953;SDS011;3516;47.980;8.808;2023-01-29T19:01:23;11.43;;;8.55;;
6953;SDS011;3516;47.980;8.808;2023-01-29T19:03:51;11.25;;;8.90;;
6953;SDS011;3516;47.980;8.808;2023-01-29T19:06:18;16.13;;;10.68;;
6953;SDS011;3516;47.980;8.808;2023-01-29T19:08:45;15.75;;;11.13;;
6953;SDS011;3516;47.980;8.808;2023-01-29T19:11:12;13.93;;;10.48;;
6953;SDS011;3516;47.980;8.808;2023-01-29T19:13:39;15.30;;;11.95;;
6953;SDS011;3516;47.980;8.808;2023-01-29T19:16:09;13.15;;;9.77;;
6953;SDS011;3516;47.980;8.808;2023-01-29T19:18:36;12.57;;;10.15;;
6953;SDS011;3516;47.980;8.808;2023-01-29T19:21:06;12.07;;;9.55;;
6953;SDS011;3516;47.980;8.808;2023-01-29T19:23:34;15.32;;;10.70;;
6953;SDS011;3516;47.980;8.808;2023-01-29T19:26:01;14.15;;;9.90;;
6953;SDS011;3516;47.980;8.808;2023-01-29T19:28:28;11.60;;;9.40;;
6953;SDS011;3516;47.980;8.808;2023-01-29T19:30:55;13.40;;;9.77;;
6953;SDS011;3516;47.980;8.808;2023-01-29T19:33:24;12.23;;;9.30;;
6953;SDS011;3516;47.980;8.808;2023-01-29T19:35:51;14.32;;;9.77;;
6953;SDS011;3516;47.980;8.808;2023-01-29T19:38:18;14.70;;;10.23;;
6953;SDS011;3516;47.980;8.808;2023-01-29T19:40:45;12.82;;;9.63;;
6953;SDS011;3516;47.980;8.808;2023-01-29T19:43:13;11.88;;;9.52;;
6953;SDS011;3516;47.980;8.808;2023-01-29T19:45:41;13.55;;;10.13;;
6953;SDS011;3516;47.980;8.808;2023-01-29T19:48:12;13.65;;;10.18;;
6953;SDS011;3516;47.980;8.808;2023-01-29T19:50:41;13.10;;;9.52;;
6953;SDS011;3516;47.980;8.808;2023-01-29T19:53:08;13.23;;;9.70;;
6953;SDS011;3516;47.980;8.808;2023-01-29T19:55:35;15.77;;;10.63;;
6953;SDS011;3516;47.980;8.808;2023-01-29T19:58:02;13.15;;;9.98;;
6953;SDS011;3516;47.980;8.808;2023-01-29T20:00:29;14.75;;;10.63;;
6953;SDS011;3516;47.980;8.808;2023-01-29T20:02:56;15.98;;;10.25;;
6953;SDS011;3516;47.980;8.808;2023-01-29T20:05:23;13.43;;;9.95;;
6953;SDS011;3516;47.980;8.808;2023-01-29T20:07:52;12.48;;;9.38;;
6953;SDS011;3516;47.980;8.808;2023-01-29T20:10:19;12.70;;;9.90;;
6953;SDS011;3516;47.980;8.808;2023-01-29T20:12:46;14.23;;;10.90;;
6953;SDS011;3516;47.980;8.808;2023-01-29T20:15:13;14.57;;;10.93;;
6953;SDS011;3516;47.980;8.808;2023-01-29T20:17:41;16.30;;;10.32;;
6953;SDS011;3516;47.980;8.808;2023-01-29T20:20:09;18.17;;;11.45;;
6953;SDS011;3516;47.980;8.808;2023-01-29T20:22:37;14.90;;;9.60;;
6953;SDS011;3516;47.980;8.808;2023-01-29T20:25:05;13.48;;;10.18;;
6953;SDS011;3516;47.980;8.808;2023-01-29T20:27:32;14.85;;;10.73;;
6953;SDS011;3516;47.980;8.808;2023-01-29T20:30:00;17.48;;;11.10;;
6953;SDS011;3516;47.980;8.808;2023-01-29T20:32:27;14.35;;;9.98;;
6953;SDS011;3516;47.980;8.808;2023-01-29T20:34:55;15.85;;;11.23;;
6953;SDS011;3516;47.980;8.808;2023-01-29T20:37:22;15.15;;;11.32;;
6953;SDS011;3516;47.980;8.808;2023-01-29T20:39:49;19.05;;;12.77;;
6953;SDS011;3516;47.980;8.808;2023-01-29T20:42:18;19.15;;;12.30;;
6953;SDS011;3516;47.980;8.808;2023-01-29T20:44:45;18.92;;;11.20;;
6953;SDS011;3516;47.980;8.808;2023-01-29T20:47:12;16.40;;;12.13;;
6953;SDS011;3516;47.980;8.808;2023-01-29T20:49:39;17.15;;;11.57;;
6953;SDS011;3516;47.980;8.808;2023-01-29T20:52:06;16.10;;;11.73;;
6953;SDS011;3516;47.980;8.808;2023-01-29T20:54:34;13.20;;;10.90;;
6953;SDS011;3516;47.980;8.808;2023-01-29T20:57:01;16.13;;;10.73;;
6953;SDS011;3516;47.980;8.808;2023-01-29T20:59:30;17.42;;;11.70;;
6953;SDS011;3516;47.980;8.808;2023-01-29T21:01:57;15.98;;;11.55;;
6953;SDS011;3516;47.980;8.808;2023-01-29T21:04:24;15.00;;;11.77;;
6953;SDS011;3516;47.980;8.808;2023-01-29T21:06:51;21.90;;;14.27;;
6953;SDS011;3516;47.980;8.808;2023-01-29T21:09:18;23.60;;;14.93;;
6953;SDS011;3516;47.980;8.808;2023-01-29T21:11:45;26.17;;;17.50;;
6953;SDS011;3516;47.980;8.808;2023-01-29T21:14:13;27.00;;;17.10;;
6953;SDS011;3516;47.980;8.808;2023-01-29T21:16:41;26.20;;;16.25;;
6953;SDS011;3516;47.980;8.808;2023-01-29T21:19:08;23.77;;;14.85;;
6953;SDS011;3516;47.980;8.808;2023-01-29T21:21:38;19.05;;;13.20;;
6953;SDS011;3516;47.980;8.808;2023-01-29T21:24:05;17.90;;;12.50;;
6953;SDS011;3516;47.980;8.808;2023-01-29T21:26:33;18.85;;;12.40;;
6953;SDS011;3516;47.980;8.808;2023-01-29T21:29:02;18.55;;;12.20;;
6953;SDS011;3516;47.980;8.808;2023-01-29T21:31:29;17.38;;;11.73;;
6953;SDS011;3516;47.980;8.808;2023-01-29T21:33:57;17.55;;;12.00;;
6953;SDS011;3516;47.980;8.808;2023-01-29T21:36:24;16.75;;;11.40;;
6953;SDS011;3516;47.980;8.808;2023-01-29T21:38:51;17.90;;;11.48;;
6953;SDS011;3516;47.980;8.808;2023-01-29T21:41:18;16.67;;;11.30;;
6953;SDS011;3516;47.980;8.808;2023-01-29T21:44:06;19.55;;;12.63;;
6953;SDS011;3516;47.980;8.808;2023-01-29T21:46:32;19.35;;;12.00;;
6953;SDS011;3516;47.980;8.808;2023-01-29T21:49:01;20.88;;;12.52;;